Time;durP1;ratioP1;P1;durP2;ratioP2;P2;SDS_P1;SDS_P2;PMS_P1;PMS_P2;Temp;Humidity;BMP_temperature;BMP_pressure;BME280_temperature;BME280_humidity;BME280_pressure;Samples;Min_cycle;Max_cycle;Signal;HPM_P1;HPM_P2
2022/07/29 00:02:28;;;;;;;10.37;9.17;;;;;;;23.13;70.73;97220.75;6268649;22;20250;-70
2022/07/29 00:04:55;;;;;;;12.30;10.27;;;;;;;23.05;70.95;97212.72;6268343;22;20289;-71
2022/07/29 00:07:22;;;;;;;12.33;10.97;;;;;;;23.02;71.12;97218.31;6268291;22;20173;-71
2022/07/29 00:09:49;;;;;;;12.17;10.83;;;;;;;23.01;71.11;97224.56;6270028;22;20481;-70
2022/07/29 00:12:23;;;;;;;13.53;12.13;;;;;;;22.87;71.48;97217.06;6268296;22;20213;-70
2022/07/29 00:14:56;;;;;;;14.93;12.80;;;;;;;22.30;73.70;97213.44;6269466;22;20162;-71
2022/07/29 00:17:23;;;;;;;13.33;11.93;;;;;;;21.67;76.07;97211.22;6267974;22;20186;-70
2022/07/29 00:19:51;;;;;;;15.63;12.40;;;;;;;21.46;76.94;97218.34;6266591;22;20633;-70
2022/07/29 00:22:19;;;;;;;13.17;11.37;;;;;;;21.28;77.68;97204.13;6268446;22;20164;-70
2022/07/29 00:24:49;;;;;;;14.63;12.30;;;;;;;21.24;77.94;97207.97;6269146;22;20173;-70
2022/07/29 00:27:17;;;;;;;14.63;11.90;;;;;;;21.31;77.85;97223.13;6269823;22;20209;-71
2022/07/29 00:29:44;;;;;;;14.30;12.30;;;;;;;21.54;76.87;97218.50;6268259;22;20201;-70
2022/07/29 00:32:11;;;;;;;17.13;13.13;;;;;;;21.55;76.73;97217.56;6269378;22;20196;-70
2022/07/29 00:37:24;;;;;;;14.07;12.47;;;;;;;21.25;77.89;97221.00;6267934;22;20173;-70
2022/07/29 00:39:51;;;;;;;15.03;12.40;;;;;;;21.00;78.68;97209.06;6269641;22;20585;-70
2022/07/29 00:42:18;;;;;;;13.80;12.40;;;;;;;20.87;78.76;97189.19;6269382;22;20160;-70
2022/07/29 00:44:46;;;;;;;13.30;11.83;;;;;;;20.80;78.86;97198.56;6270090;22;20215;-70
2022/07/29 00:47:13;;;;;;;14.43;11.50;;;;;;;20.76;79.42;97197.97;6268826;22;20260;-70
2022/07/29 00:49:41;;;;;;;14.93;12.27;;;;;;;20.72;79.28;97193.09;6270920;22;20164;-70
2022/07/29 00:52:10;;;;;;;14.07;12.37;;;;;;;20.78;79.09;97196.06;6271279;22;20200;-71
2022/07/29 00:54:39;;;;;;;16.50;13.23;;;;;;;20.54;79.23;97195.47;6268505;22;20200;-71
2022/07/29 00:57:11;;;;;;;15.30;11.93;;;;;;;20.65;78.92;97186.69;6269813;22;20616;-70
2022/07/29 00:59:38;;;;;;;15.43;12.53;;;;;;;20.86;78.15;97190.13;6270188;22;20520;-72
2022/07/29 01:02:05;;;;;;;14.90;12.27;;;;;;;20.76;77.82;97195.34;6271596;22;20165;-71
2022/07/29 01:04:33;;;;;;;15.10;12.00;;;;;;;20.71;78.09;97194.06;6270723;22;20511;-71
2022/07/29 01:07:04;;;;;;;15.67;11.57;;;;;;;20.67;78.01;97188.22;6270923;22;20165;-71
2022/07/29 01:09:32;;;;;;;15.80;11.67;;;;;;;21.08;76.78;97197.09;6271551;22;20620;-72
2022/07/29 01:12:24;;;;;;;14.23;11.87;;;;;;;21.26;75.90;97195.50;6269944;22;20192;-72
2022/07/29 01:14:53;;;;;;;13.07;10.80;;;;;;;21.44;74.26;97193.91;6271569;22;20164;-73
2022/07/29 01:17:19;;;;;;;13.37;10.57;;;;;;;21.67;73.30;97185.69;6270433;22;20645;-72
2022/07/29 01:20:06;;;;;;;14.30;10.40;;;;;;;21.80;73.16;97196.00;6270957;22;20236;-72
2022/07/29 01:22:36;;;;;;;11.33;10.20;;;;;;;21.66;73.14;97202.47;6271597;22;20169;-72
2022/07/29 01:25:15;;;;;;;13.40;9.63;;;;;;;21.63;72.99;97199.25;6269492;22;20238;-73
2022/07/29 01:28:17;;;;;;;11.30;9.10;;;;;;;21.70;72.67;97201.22;6269521;22;20607;-72
2022/07/29 01:30:46;;;;;;;12.57;9.47;;;;;;;21.58;72.67;97193.53;6232012;22;20196;-71
2022/07/29 01:33:48;;;;;;;11.47;9.93;;;;;;;21.45;73.35;97201.69;6270111;22;20162;-71
2022/07/29 01:36:11;;;;;;;11.80;8.47;;;;;;;21.26;74.73;97198.16;6270883;22;20181;-71
2022/07/29 01:38:42;;;;;;;11.17;9.73;;;;;;;21.36;73.94;97191.13;6269132;22;20890;-70
2022/07/29 01:41:17;;;;;;;13.70;9.93;;;;;;;21.43;73.97;97198.34;6271106;22;20166;-71
2022/07/29 01:44:02;;;;;;;10.50;9.43;;;;;;;21.29;74.63;97193.44;6270624;22;20168;-70
2022/07/29 01:46:34;;;;;;;11.53;9.47;;;;;;;20.98;76.34;97199.63;6269285;22;20805;-70
2022/07/29 01:49:09;;;;;;;16.13;10.03;;;;;;;20.79;77.01;97187.19;6270798;22;20166;-70
2022/07/29 01:51:48;;;;;;;11.17;9.93;;;;;;;20.76;77.73;97182.19;6268996;22;20277;-70
2022/07/29 01:54:30;;;;;;;11.83;9.67;;;;;;;20.55;78.23;97181.34;6270205;22;20582;-70
2022/07/29 01:57:00;;;;;;;11.27;9.33;;;;;;;20.36;79.09;97160.16;6270623;22;20562;-71
2022/07/29 01:59:30;;;;;;;12.07;10.43;;;;;;;20.30;79.45;97181.69;6269117;22;20164;-70
2022/07/29 02:01:59;;;;;;;11.90;9.60;;;;;;;20.20;79.58;97186.06;6270719;22;20161;-71
2022/07/29 02:04:28;;;;;;;14.37;10.90;;;;;;;20.13;79.88;97187.50;6242157;22;20179;-70
2022/07/29 02:07:01;;;;;;;12.73;10.83;;;;;;;19.91;80.77;97183.13;6270690;22;20168;-70
2022/07/29 02:09:31;;;;;;;19.17;10.13;;;;;;;19.95;80.41;97178.44;6269717;22;20616;-70
2022/07/29 02:12:00;;;;;;;12.77;9.80;;;;;;;20.11;79.47;97166.56;6242659;22;20203;-70
2022/07/29 02:14:32;;;;;;;10.70;9.30;;;;;;;20.08;78.75;97168.63;6270727;22;20164;-70
2022/07/29 02:17:01;;;;;;;11.93;8.93;;;;;;;20.04;78.85;97169.81;6269164;22;20195;-71
2022/07/29 02:19:31;;;;;;;12.33;9.20;;;;;;;20.12;79.08;97164.78;6270688;22;20344;-71
2022/07/29 02:22:00;;;;;;;10.53;8.80;;;;;;;20.06;78.49;97160.84;6269048;22;20179;-71
2022/07/29 02:24:29;;;;;;;12.03;9.33;;;;;;;20.05;78.24;97171.50;6270657;22;20165;-70
2022/07/29 02:26:59;;;;;;;10.83;8.70;;;;;;;20.14;78.31;97170.75;6269772;22;20644;-70
2022/07/29 02:29:28;;;;;;;10.23;8.30;;;;;;;20.01;78.70;97175.34;6293694;22;20164;-71
2022/07/29 02:31:58;;;;;;;9.83;8.77;;;;;;;20.07;78.31;97169.59;6270512;22;20230;-71
2022/07/29 02:34:25;;;;;;;11.67;8.37;;;;;;;19.98;78.25;97160.66;6268815;22;20168;-71
2022/07/29 02:36:55;;;;;;;12.90;8.77;;;;;;;20.01;78.58;97160.38;6270430;22;20246;-70
2022/07/29 02:39:25;;;;;;;11.97;8.43;;;;;;;20.20;77.56;97170.28;6269062;22;20168;-70
2022/07/29 02:42:08;;;;;;;10.70;7.83;;;;;;;20.48;76.82;97177.56;6270558;22;20165;-70
2022/07/29 02:44:35;;;;;;;9.90;8.07;;;;;;;20.62;76.21;97171.16;6270366;22;20160;-70
2022/07/29 02:47:15;;;;;;;16.80;8.33;;;;;;;20.78;75.13;97172.38;6267023;22;20177;-70
2022/07/29 02:50:02;;;;;;;10.47;7.87;;;;;;;20.72;75.28;97167.63;6270333;22;20171;-70
2022/07/29 02:52:32;;;;;;;13.07;9.33;;;;;;;20.60;75.66;97168.66;6268797;22;20207;-70
2022/07/29 02:55:36;;;;;;;14.40;8.40;;;;;;;20.56;75.49;97172.50;6269797;22;20161;-71
2022/07/29 02:58:12;;;;;;;13.53;8.67;;;;;;;20.29;76.41;97172.16;6270111;22;20221;-71
2022/07/29 03:00:40;;;;;;;13.07;9.83;;;;;;;19.94;77.98;97169.75;6268673;22;20875;-70
2022/07/29 03:03:14;;;;;;;10.33;9.20;;;;;;;19.63;79.36;97170.53;6243619;22;21087;-70
2022/07/29 03:05:41;;;;;;;11.67;9.70;;;;;;;19.57;79.60;97175.44;6242208;22;20650;-70
2022/07/29 03:08:11;;;;;;;12.30;9.40;;;;;;;19.49;80.10;97162.91;6269864;22;20168;-70
2022/07/29 03:10:45;;;;;;;12.10;10.30;;;;;;;19.61;79.96;97182.97;6270638;22;20202;-70
2022/07/29 03:13:13;;;;;;;11.77;9.20;;;;;;;19.76;79.23;97170.41;6268515;22;20172;-71
2022/07/29 03:15:43;;;;;;;14.10;9.97;;;;;;;19.70;79.28;97170.88;6268635;22;20227;-70
2022/07/29 03:18:11;;;;;;;12.97;10.00;;;;;;;19.67;79.38;97171.13;6268482;22;20174;-70
2022/07/29 03:20:38;;;;;;;15.87;10.93;;;;;;;19.63;79.88;97180.22;6243023;22;20190;-70
2022/07/29 03:23:07;;;;;;;13.80;10.60;;;;;;;19.57;80.16;97186.78;6269399;22;20187;-71
2022/07/29 03:25:34;;;;;;;16.47;10.33;;;;;;;19.78;79.41;97177.22;6269338;22;20882;-70
2022/07/29 03:28:02;;;;;;;12.60;9.03;;;;;;;20.10;77.69;97174.59;6269869;22;20204;-72
2022/07/29 03:30:30;;;;;;;11.67;9.73;;;;;;;20.41;76.62;97192.19;6268342;22;20168;-71
2022/07/29 03:32:57;;;;;;;9.63;8.63;;;;;;;20.54;75.46;97192.84;6268273;22;20593;-73
2022/07/29 03:35:24;;;;;;;12.23;8.77;;;;;;;20.60;74.82;97199.38;6268232;22;20197;-71
2022/07/29 03:37:51;;;;;;;11.97;9.37;;;;;;;20.49;75.22;97195.00;6269893;22;20231;-71
2022/07/29 03:40:35;;;;;;;11.13;9.87;;;;;;;20.45;74.89;97203.28;6268935;22;20179;-70
2022/07/29 03:43:03;;;;;;;11.53;8.83;;;;;;;20.47;74.54;97199.56;6267322;22;20164;-72
2022/07/29 03:45:31;;;;;;;13.60;9.17;;;;;;;20.78;73.67;97196.06;6269784;22;20164;-70
2022/07/29 03:48:09;;;;;;;13.43;8.90;;;;;;;20.93;72.71;97202.66;6267846;22;20579;-70
2022/07/29 03:50:36;;;;;;;12.30;9.40;;;;;;;20.73;73.05;97203.50;6268057;22;20184;-70
2022/07/29 03:53:03;;;;;;;11.90;8.60;;;;;;;20.64;73.78;97206.91;6267525;22;20197;-72
2022/07/29 03:55:36;;;;;;;11.83;9.23;;;;;;;20.53;74.16;97204.31;6269155;22;20191;-70
2022/07/29 03:58:03;;;;;;;13.90;9.10;;;;;;;20.54;74.34;97210.44;6267535;22;20165;-71
2022/07/29 04:00:31;;;;;;;9.60;7.83;;;;;;;20.54;74.34;97216.53;6267996;22;20282;-69
2022/07/29 04:02:58;;;;;;;10.97;8.33;;;;;;;20.62;74.23;97211.47;6267960;22;20161;-70
2022/07/29 04:05:25;;;;;;;11.10;9.00;;;;;;;20.84;73.13;97207.84;6267691;22;20162;-70
2022/07/29 04:07:52;;;;;;;10.93;8.53;;;;;;;21.16;71.91;97205.19;6269765;22;20600;-69
2022/07/29 04:10:19;;;;;;;11.73;8.77;;;;;;;21.30;71.41;97213.56;6268317;22;20164;-70
2022/07/29 04:12:58;;;;;;;15.57;8.80;;;;;;;21.54;70.44;97203.53;6269161;22;20196;-70
2022/07/29 04:15:27;;;;;;;12.47;9.37;;;;;;;21.65;69.14;97189.41;6269452;22;20515;-70
2022/07/29 04:17:58;;;;;;;11.67;9.60;;;;;;;21.55;70.05;97220.19;6267957;22;20166;-70
2022/07/29 04:20:25;;;;;;;11.60;9.63;;;;;;;21.43;70.94;97218.63;6271404;22;20567;-70
2022/07/29 04:22:52;;;;;;;12.90;8.77;;;;;;;21.69;70.13;97201.38;6268174;22;20262;-71
2022/07/29 04:25:19;;;;;;;8.20;7.40;;;;;;;22.21;68.09;97224.84;6271576;22;20633;-72
2022/07/29 04:28:01;;;;;;;10.67;7.33;;;;;;;22.77;66.83;97221.53;6293980;22;20189;-70
2022/07/29 04:30:30;;;;;;;11.70;6.83;;;;;;;22.79;64.92;97167.59;6270903;22;20182;-71
2022/07/29 04:32:57;;;;;;;10.57;6.73;;;;;;;23.27;63.89;97210.56;6271256;22;20198;-72
2022/07/29 04:35:25;;;;;;;8.63;6.23;;;;;;;23.55;62.68;97219.41;6267831;22;20233;-70
2022/07/29 04:37:52;;;;;;;9.70;5.80;;;;;;;23.64;62.77;97223.81;6270986;22;20190;-71
2022/07/29 04:40:19;;;;;;;10.57;6.40;;;;;;;23.53;61.96;97213.44;6267806;22;20172;-71
2022/07/29 04:42:46;;;;;;;7.67;6.90;;;;;;;23.42;63.32;97224.19;6269618;22;20180;-72
2022/07/29 04:45:15;;;;;;;10.53;6.50;;;;;;;23.58;63.11;97216.47;6268469;22;20635;-71
2022/07/29 04:47:48;;;;;;;11.03;7.00;;;;;;;23.32;63.28;97212.81;6268638;22;20192;-71
2022/07/29 04:50:15;;;;;;;9.73;6.47;;;;;;;23.66;63.12;97227.16;6271228;22;20169;-71
2022/07/29 04:52:43;;;;;;;6.53;5.57;;;;;;;23.72;63.17;97217.81;6241751;22;20207;-71
2022/07/29 04:55:11;;;;;;;11.93;6.63;;;;;;;23.99;61.90;97218.63;6271280;22;20166;-71
2022/07/29 04:57:38;;;;;;;8.23;5.93;;;;;;;23.83;62.29;97229.03;6293331;22;20185;-71
2022/07/29 05:00:06;;;;;;;6.53;5.43;;;;;;;23.93;62.19;97221.00;6271039;22;20163;-71
2022/07/29 05:02:33;;;;;;;9.47;6.50;;;;;;;23.99;61.63;97228.34;6268083;22;20275;-71
2022/07/29 05:05:00;;;;;;;8.03;6.80;;;;;;;23.60;62.94;97229.53;6268714;22;20220;-71
2022/07/29 05:07:28;;;;;;;6.67;6.07;;;;;;;23.37;64.06;97240.47;6270942;22;20190;-71
2022/07/29 05:09:56;;;;;;;9.07;6.73;;;;;;;23.63;63.64;97237.19;6269434;22;20219;-71
2022/07/29 05:12:24;;;;;;;8.07;6.00;;;;;;;23.64;63.23;97244.97;6295158;22;20206;-71
2022/07/29 05:14:51;;;;;;;7.37;6.30;;;;;;;23.54;63.37;97246.81;6268903;22;20157;-71
2022/07/29 05:17:18;;;;;;;8.30;6.60;;;;;;;23.38;64.13;97241.31;6269332;22;20172;-71
2022/07/29 05:19:46;;;;;;;8.57;6.30;;;;;;;23.65;63.21;97238.72;6269952;22;20238;-71
2022/07/29 05:22:13;;;;;;;11.00;6.63;;;;;;;24.29;61.81;97246.63;6268791;22;20166;-71
2022/07/29 05:24:40;;;;;;;9.73;6.80;;;;;;;24.06;61.68;97234.78;6270992;22;20161;-72
2022/07/29 05:27:07;;;;;;;9.90;6.50;;;;;;;24.05;62.17;97238.41;6268806;22;20194;-74
2022/07/29 05:29:34;;;;;;;7.63;5.70;;;;;;;24.22;62.37;97256.97;6270452;22;20622;-71
2022/07/29 05:32:11;;;;;;;9.03;6.27;;;;;;;24.41;61.17;97255.16;6268696;22;20200;-72
2022/07/29 05:34:39;;;;;;;8.73;6.57;;;;;;;24.82;60.74;97254.59;6270914;22;20569;-71
2022/07/29 05:37:19;;;;;;;9.50;6.80;;;;;;;24.92;59.92;97255.31;6270144;22;20166;-72
2022/07/29 05:39:46;;;;;;;7.30;6.43;;;;;;;24.99;60.19;97251.09;6269824;22;20172;-72
2022/07/29 05:42:22;;;;;;;7.73;6.73;;;;;;;25.03;60.23;97252.44;6269026;22;20171;-71
2022/07/29 05:44:49;;;;;;;12.47;7.30;;;;;;;24.81;60.49;97255.59;6268928;22;20166;-72
2022/07/29 05:47:16;;;;;;;13.40;7.67;;;;;;;24.72;61.21;97248.50;6270834;22;20252;-72
2022/07/29 05:49:43;;;;;;;9.87;6.80;;;;;;;25.24;59.93;97244.97;6266838;22;20167;-72
2022/07/29 05:52:10;;;;;;;8.53;7.17;;;;;;;25.11;60.13;97252.50;6268442;22;20201;-71
2022/07/29 05:54:37;;;;;;;10.33;6.80;;;;;;;25.03;59.52;97247.16;6269659;22;20170;-73
2022/07/29 05:57:05;;;;;;;12.37;6.93;;;;;;;24.87;60.47;97247.03;6293147;22;20216;-72
2022/07/29 05:59:36;;;;;;;8.37;6.87;;;;;;;24.69;62.08;97249.63;6269987;22;20231;-72
2022/07/29 06:02:04;;;;;;;11.00;6.20;;;;;;;25.12;60.05;97245.38;6266617;22;20190;-72
2022/07/29 06:04:33;;;;;;;11.27;6.90;;;;;;;25.30;58.55;97248.81;6270164;22;20168;-71
2022/07/29 06:07:01;;;;;;;7.87;6.77;;;;;;;25.42;59.68;97253.75;6266608;22;20516;-71
2022/07/29 06:09:29;;;;;;;7.73;5.20;;;;;;;25.33;59.78;97252.00;6269916;22;20161;-73
2022/07/29 06:11:57;;;;;;;15.33;6.23;;;;;;;25.06;60.93;97244.16;6241595;22;20207;-73
2022/07/29 06:14:26;;;;;;;9.47;6.10;;;;;;;25.15;60.10;97256.50;6267039;22;20251;-73
2022/07/29 06:16:53;;;;;;;15.60;9.00;;;;;;;25.58;58.84;97253.84;6269806;22;20252;-71
2022/07/29 06:19:20;;;;;;;6.77;5.80;;;;;;;25.78;58.25;97257.91;6266048;22;20457;-73
2022/07/29 06:21:47;;;;;;;8.07;5.90;;;;;;;26.22;55.76;97252.47;6270011;22;20832;-75
2022/07/29 06:24:15;;;;;;;7.33;5.83;;;;;;;26.24;55.36;97256.63;6266101;22;20490;-72
2022/07/29 06:26:43;;;;;;;10.03;7.10;;;;;;;26.31;55.53;97244.38;6269634;22;20196;-72
2022/07/29 06:29:11;;;;;;;7.37;6.20;;;;;;;26.47;55.50;97257.69;6268969;22;20157;-72
2022/07/29 06:31:39;;;;;;;6.67;5.87;;;;;;;26.70;54.51;97247.25;6267257;22;20173;-72
2022/07/29 06:34:06;;;;;;;8.47;5.97;;;;;;;26.78;54.09;97238.47;6269981;22;20211;-73
2022/07/29 06:36:36;;;;;;;6.73;5.80;;;;;;;26.73;53.66;97257.56;6265944;22;20259;-71
2022/07/29 06:39:06;;;;;;;7.60;6.83;;;;;;;26.63;53.77;97256.88;6267890;22;20229;-72
2022/07/29 06:41:34;;;;;;;7.83;5.77;;;;;;;26.54;53.84;97264.00;6266177;22;20646;-73
2022/07/29 06:44:09;;;;;;;8.37;5.80;;;;;;;26.37;53.24;97237.56;6242272;22;20172;-73
2022/07/29 06:46:36;;;;;;;6.63;5.93;;;;;;;26.76;52.38;97251.94;6266831;22;20242;-73
2022/07/29 06:49:04;;;;;;;9.73;5.43;;;;;;;27.18;52.08;97255.25;6268247;22;20600;-71
2022/07/29 06:51:31;;;;;;;6.93;5.07;;;;;;;27.63;50.95;97253.88;6267433;22;20273;-73
2022/07/29 06:54:00;;;;;;;7.13;5.20;;;;;;;27.64;49.22;97243.06;6265812;22;20192;-75
2022/07/29 06:56:31;;;;;;;7.60;5.03;;;;;;;27.86;48.21;97250.28;6268220;22;20167;-73
2022/07/29 06:59:07;;;;;;;7.17;4.83;;;;;;;28.10;47.11;97242.25;6242270;22;20172;-74
2022/07/29 07:01:40;;;;;;;7.50;5.20;;;;;;;28.24;46.91;97253.16;6268191;22;20165;-73
2022/07/29 07:04:08;;;;;;;8.73;5.50;;;;;;;28.40;47.01;97251.22;6267079;22;20222;-72
2022/07/29 07:06:36;;;;;;;5.20;4.40;;;;;;;28.28;45.41;97247.31;6266208;22;20622;-73
2022/07/29 07:09:04;;;;;;;6.83;4.20;;;;;;;28.38;43.98;97247.91;6267858;22;20160;-71
2022/07/29 07:11:31;;;;;;;5.70;3.67;;;;;;;28.33;44.62;97252.13;6239929;22;20707;-71
2022/07/29 07:13:58;;;;;;;5.57;4.63;;;;;;;28.32;45.47;97253.94;6269169;22;20200;-72
2022/07/29 07:16:43;;;;;;;6.53;3.90;;;;;;;28.55;43.31;97244.16;6244414;22;20164;-71
2022/07/29 07:19:10;;;;;;;5.73;4.60;;;;;;;28.60;42.74;97244.50;6268629;22;20192;-73
2022/07/29 07:21:40;;;;;;;7.77;4.43;;;;;;;28.69;41.87;97243.41;6241907;22;20168;-74
2022/07/29 07:24:07;;;;;;;9.57;4.60;;;;;;;28.87;41.90;97249.28;6265662;22;20168;-71
2022/07/29 07:26:34;;;;;;;7.00;4.37;;;;;;;29.25;41.40;97251.97;6267330;22;20215;-74
2022/07/29 07:29:01;;;;;;;5.20;4.33;;;;;;;28.93;39.24;97205.06;6266939;22;20686;-73
2022/07/29 07:31:28;;;;;;;6.53;4.67;;;;;;;28.95;40.03;97206.53;6293588;22;20174;-74
2022/07/29 07:33:56;;;;;;;7.70;6.40;;;;;;;28.84;38.81;97238.13;6240576;22;20238;-73
2022/07/29 07:36:23;;;;;;;4.10;3.70;;;;;;;29.19;38.13;97247.38;6241005;22;20168;-72
2022/07/29 07:38:50;;;;;;;7.00;4.60;;;;;;;29.50;38.77;97243.56;6268537;22;20672;-72
2022/07/29 07:41:17;;;;;;;4.40;4.00;;;;;;;29.44;37.11;97235.47;6239899;22;20179;-71
2022/07/29 07:43:45;;;;;;;4.40;4.00;;;;;;;29.62;37.86;97233.25;6267033;22;20179;-72
2022/07/29 07:46:12;;;;;;;4.43;3.43;;;;;;;29.75;37.15;97233.47;6266911;22;20196;-72
2022/07/29 07:48:39;;;;;;;3.93;3.50;;;;;;;29.84;35.96;97240.41;6267284;22;20165;-73
2022/07/29 07:51:07;;;;;;;4.13;3.73;;;;;;;29.96;36.35;97241.59;6240008;22;20197;-73
2022/07/29 07:53:34;;;;;;;5.50;4.07;;;;;;;28.87;37.65;97243.13;6270863;22;20196;-72
2022/07/29 07:56:02;;;;;;;5.00;4.50;;;;;;;29.26;37.37;97237.66;6270347;22;20587;-73
2022/07/29 07:58:38;;;;;;;4.47;4.00;;;;;;;29.54;36.88;97238.69;6267388;22;20229;-73
2022/07/29 08:01:05;;;;;;;3.77;3.47;;;;;;;29.28;37.38;97222.28;6244088;22;20674;-72
2022/07/29 08:03:33;;;;;;;10.23;5.77;;;;;;;29.04;38.40;97227.81;6242085;22;20187;-72
2022/07/29 08:06:00;;;;;;;5.50;4.33;;;;;;;29.22;37.08;97229.19;6269402;22;20592;-73
2022/07/29 08:08:27;;;;;;;5.63;3.53;;;;;;;28.52;38.27;97223.16;6267407;22;20168;-73
2022/07/29 08:10:58;;;;;;;5.47;3.60;;;;;;;28.97;38.26;97222.38;6271066;22;20161;-72
2022/07/29 08:13:31;;;;;;;30.17;14.80;;;;;;;29.28;37.42;97204.44;6268841;22;20200;-73
2022/07/29 08:16:11;;;;;;;4.47;3.97;;;;;;;29.67;37.36;97214.84;6267865;22;20170;-73
2022/07/29 08:18:39;;;;;;;3.70;3.40;;;;;;;29.00;38.18;97218.53;6269331;22;20552;-73
2022/07/29 08:21:06;;;;;;;5.67;3.97;;;;;;;29.13;37.52;97216.06;6241300;22;20164;-72
2022/07/29 08:23:45;;;;;;;4.67;3.33;;;;;;;29.35;38.64;97220.53;6269050;22;20179;-73
2022/07/29 08:26:19;;;;;;;5.10;3.70;;;;;;;29.82;37.71;97209.53;6244071;22;20603;-73
2022/07/29 08:28:50;;;;;;;8.27;3.87;;;;;;;30.12;36.80;97222.66;6269699;22;20163;-72
2022/07/29 08:31:17;;;;;;;4.37;3.70;;;;;;;29.78;37.20;97225.09;6270672;22;20254;-72
2022/07/29 08:33:51;;;;;;;5.37;4.87;;;;;;;30.03;36.96;97218.44;6269246;22;20204;-73
2022/07/29 08:36:20;;;;;;;18.00;10.83;;;;;;;30.00;36.40;97229.50;6268882;22;20238;-72
2022/07/29 08:38:49;;;;;;;5.63;4.33;;;;;;;29.85;37.19;97214.50;6268895;22;20180;-73
2022/07/29 08:41:18;;;;;;;6.13;4.00;;;;;;;29.38;38.10;97217.50;6268855;22;20178;-72
2022/07/29 08:43:47;;;;;;;9.60;5.80;;;;;;;29.72;37.88;97223.13;6270239;22;20675;-73
2022/07/29 08:46:16;;;;;;;6.33;4.30;;;;;;;29.74;36.59;97208.59;6267676;22;20233;-73
2022/07/29 08:48:44;;;;;;;5.83;3.83;;;;;;;29.87;37.27;97207.13;6270675;22;20171;-72
2022/07/29 08:51:17;;;;;;;4.17;3.77;;;;;;;29.80;37.99;97212.38;6241792;22;20172;-72
2022/07/29 08:53:49;;;;;;;3.73;3.43;;;;;;;30.19;37.22;97204.03;6270487;22;20617;-73
2022/07/29 08:56:18;;;;;;;5.60;4.00;;;;;;;30.29;36.38;97194.75;6267262;22;20251;-73
2022/07/29 08:58:47;;;;;;;6.00;4.13;;;;;;;30.57;36.33;97188.63;6270293;22;20455;-73
2022/07/29 09:01:23;;;;;;;5.43;3.70;;;;;;;30.78;36.32;97196.66;6270461;22;20182;-73
2022/07/29 09:04:05;;;;;;;4.20;3.47;;;;;;;30.52;35.93;97206.06;6218734;22;20234;-72
2022/07/29 09:06:36;;;;;;;4.03;3.60;;;;;;;30.02;36.00;97190.06;6270689;22;20160;-73
2022/07/29 09:09:04;;;;;;;3.60;3.30;;;;;;;29.75;37.21;97185.41;6269153;22;20164;-72
2022/07/29 09:11:32;;;;;;;6.40;4.63;;;;;;;29.94;36.80;97197.38;6269086;22;20223;-72
2022/07/29 09:13:59;;;;;;;3.70;3.30;;;;;;;29.48;36.60;97194.03;6269757;22;20204;-72
2022/07/29 09:16:44;;;;;;;3.77;3.37;;;;;;;29.57;37.37;97183.06;6269242;22;20168;-72
2022/07/29 09:19:28;;;;;;;4.17;3.77;;;;;;;29.70;37.23;97180.59;6270957;22;20168;-73
2022/07/29 09:22:00;;;;;;;3.90;3.50;;;;;;;30.08;35.70;97165.28;6266667;22;20174;-72
2022/07/29 09:24:42;;;;;;;4.20;3.80;;;;;;;30.62;36.10;97180.88;6267944;22;20163;-73
2022/07/29 09:27:25;;;;;;;5.13;3.50;;;;;;;30.84;35.40;97167.28;6268517;22;20206;-72
2022/07/29 09:30:14;;;;;;;3.83;3.50;;;;;;;30.69;33.98;97179.06;6266447;22;20592;-72
2022/07/29 09:33:01;;;;;;;5.57;3.60;;;;;;;30.60;34.52;97157.00;6245155;22;20282;-73
2022/07/29 09:35:29;;;;;;;4.23;3.83;;;;;;;30.76;34.57;97170.09;6269736;22;20164;-73
2022/07/29 09:37:56;;;;;;;7.03;3.47;;;;;;;30.10;34.36;97170.41;6267510;22;20586;-74
2022/07/29 09:40:27;;;;;;;3.70;3.40;;;;;;;30.13;34.60;97160.19;6243038;22;20199;-72
2022/07/29 09:42:57;;;;;;;4.90;3.50;;;;;;;30.08;34.68;97172.47;6268359;22;20535;-73
2022/07/29 09:45:27;;;;;;;2.97;2.70;;;;;;;30.27;32.98;97172.69;6270273;22;20176;-73
2022/07/29 09:47:56;;;;;;;6.37;3.53;;;;;;;30.32;33.43;97164.94;6268434;22;20161;-73
2022/07/29 09:50:34;;;;;;;5.93;3.77;;;;;;;30.76;33.95;97174.63;6242826;22;20180;-73
2022/07/29 09:53:02;;;;;;;4.33;3.50;;;;;;;30.97;33.57;97180.81;6267553;22;20196;-71
2022/07/29 09:55:29;;;;;;;3.70;3.40;;;;;;;30.77;34.16;97176.28;6268670;22;20620;-72
2022/07/29 09:58:16;;;;;;;3.77;3.40;;;;;;;30.92;33.84;97174.38;6270001;22;20168;-73
2022/07/29 10:00:44;;;;;;;3.73;3.43;;;;;;;30.83;33.87;97167.50;6266668;22;20251;-73
2022/07/29 10:03:11;;;;;;;4.03;3.37;;;;;;;30.84;34.02;97161.09;6270443;22;20168;-73
2022/07/29 10:05:40;;;;;;;4.07;3.30;;;;;;;30.72;35.43;97168.00;6267386;22;20607;-73
2022/07/29 10:08:09;;;;;;;4.10;3.00;;;;;;;30.65;34.41;97173.28;6267614;22;20195;-73
2022/07/29 10:10:46;;;;;;;4.60;3.20;;;;;;;30.76;34.71;97151.38;6270124;22;20171;-72
2022/07/29 10:13:14;;;;;;;5.37;3.60;;;;;;;30.81;34.23;97161.50;6240268;22;20207;-73
2022/07/29 10:15:45;;;;;;;4.57;3.10;;;;;;;30.94;34.04;97151.75;6267982;22;20540;-73
2022/07/29 10:18:14;;;;;;;5.23;3.67;;;;;;;30.76;34.78;97145.19;6241199;22;20169;-74
2022/07/29 10:20:41;;;;;;;4.50;3.50;;;;;;;30.71;34.97;97147.63;6242573;22;20181;-73
2022/07/29 10:23:09;;;;;;;3.43;3.13;;;;;;;30.64;33.83;97139.56;6269553;22;20171;-73
2022/07/29 10:25:36;;;;;;;5.03;3.10;;;;;;;31.03;33.01;97134.53;6267543;22;20230;-73
2022/07/29 10:28:05;;;;;;;3.50;3.20;;;;;;;31.16;33.08;97134.63;6217486;22;20661;-74
2022/07/29 10:30:33;;;;;;;4.87;3.50;;;;;;;31.49;33.51;97129.47;6240910;22;20259;-72
2022/07/29 10:33:32;;;;;;;5.38;3.88;;;;;;;31.76;33.46;97135.78;6242836;22;20195;-73
2022/07/29 10:36:21;;;;;;;6.03;3.47;;;;;;;32.01;32.87;97121.69;6223170;22;20609;-73
2022/07/29 10:38:52;;;;;;;5.07;4.25;;;;;;;32.30;31.84;97127.75;6266664;22;20180;-72
2022/07/29 10:41:46;;;;;;;5.68;3.97;;;;;;;32.13;30.98;97119.25;6243179;22;20271;-72
2022/07/29 10:44:16;;;;;;;3.50;3.20;;;;;;;31.61;31.10;97117.22;6266794;22;20164;-72
2022/07/29 10:46:50;;;;;;;4.57;3.30;;;;;;;31.47;31.83;97109.31;6267579;22;20221;-72
2022/07/29 10:49:19;;;;;;;4.55;3.22;;;;;;;31.59;33.35;97129.13;6268025;22;20191;-73
2022/07/29 10:52:03;;;;;;;5.95;3.67;;;;;;;31.40;33.21;97124.50;6268528;22;20172;-73
2022/07/29 10:54:35;;;;;;;6.07;4.10;;;;;;;31.72;32.55;97111.25;6268098;22;20224;-72
2022/07/29 10:57:20;;;;;;;6.82;5.25;;;;;;;32.17;32.63;97111.66;6266402;22;20508;-72
2022/07/29 11:00:00;;;;;;;7.28;4.80;;;;;;;32.48;32.00;97104.69;6268290;22;20160;-71
2022/07/29 11:02:42;;;;;;;4.70;3.58;;;;;;;32.58;31.21;97107.00;6268137;22;20164;-72
2022/07/29 11:05:14;;;;;;;4.57;3.20;;;;;;;31.98;30.92;97107.88;6291773;22;20502;-72
2022/07/29 11:08:11;;;;;;;7.47;3.45;;;;;;;32.38;30.08;97109.59;6267809;22;20196;-72
2022/07/29 11:10:48;;;;;;;5.78;3.38;;;;;;;32.29;30.83;97110.00;6269143;22;20241;-72
2022/07/29 11:13:46;;;;;;;3.97;3.53;;;;;;;32.38;29.93;97103.41;6266958;22;20218;-72
2022/07/29 11:16:15;;;;;;;4.28;3.78;;;;;;;32.38;30.94;97108.78;6234789;22;20183;-74
2022/07/29 11:19:10;;;;;;;6.38;3.97;;;;;;;32.37;31.77;97107.97;6268951;22;20200;-73
2022/07/29 11:21:47;;;;;;;3.40;3.08;;;;;;;31.76;32.94;97099.13;6269693;22;20256;-72
2022/07/29 11:24:28;;;;;;;4.20;3.75;;;;;;;31.95;32.19;97089.53;6268263;22;20161;-72
2022/07/29 11:27:10;;;;;;;4.38;3.97;;;;;;;32.27;31.93;97102.19;6267727;22;20195;-72
2022/07/29 11:29:50;;;;;;;4.68;4.05;;;;;;;32.42;31.95;97091.28;6243100;22;20172;-73
2022/07/29 11:32:20;;;;;;;3.80;3.50;;;;;;;32.62;32.04;97094.81;6293118;22;20218;-73
2022/07/29 11:35:09;;;;;;;4.00;3.60;;;;;;;32.80;31.42;97095.00;6267268;22;20222;-72
2022/07/29 11:38:26;;;;;;;5.40;3.55;;;;;;;32.84;30.87;97093.56;6268254;22;20175;-71
2022/07/29 11:41:27;;;;;;;3.65;3.33;;;;;;;32.67;31.03;97087.78;6267483;22;20200;-71
2022/07/29 11:43:57;;;;;;;6.57;3.80;;;;;;;32.77;30.55;97072.09;6266590;22;20591;-72
2022/07/29 11:46:50;;;;;;;4.65;4.18;;;;;;;32.97;30.71;97072.09;6268279;22;20474;-71
2022/07/29 11:49:25;;;;;;;8.75;4.60;;;;;;;33.17;30.59;97069.38;6242234;22;20164;-71
2022/07/29 11:52:03;;;;;;;7.82;4.50;;;;;;;33.32;29.91;97072.66;6269208;22;20176;-71
2022/07/29 11:54:33;;;;;;;4.60;4.20;;;;;;;33.43;30.68;97067.44;6271013;22;20246;-72